Time;durP1;ratioP1;P1;durP2;ratioP2;P2;SDS_P1;SDS_P2;PMS_P1;PMS_P2;Temp;Humidity;BMP_temperature;BMP_pressure;BME280_temperature;BME280_humidity;BME280_pressure;Samples;Min_cycle;Max_cycle;Signal;HPM_P1;HPM_P2
2022/04/20 00:00:50;;;;;;;;;;;;;;;10.68;53.04;101580.94;5051340;28;19977;-34
2022/04/20 00:03:15;;;;;;;;;;;;;;;10.68;52.43;101585.53;5051542;28;19916;-33
2022/04/20 00:05:41;;;;;;;;;;;;;;;10.68;51.23;101585.53;5052055;28;19917;-33
2022/04/20 00:08:06;;;;;;;;;;;;;;;10.63;51.79;101582.66;5053743;28;20262;-33
2022/04/20 00:10:31;;;;;;;;;;;;;;;10.60;51.82;101577.69;5054550;28;19917;-34
2022/04/20 00:12:57;;;;;;;;;;;;;;;10.56;52.07;101574.56;5053494;28;19912;-34
2022/04/20 00:15:22;;;;;;;;;;;;;;;10.48;53.76;101569.38;5053895;28;19963;-34
2022/04/20 00:17:48;;;;;;;;;;;;;;;10.46;51.78;101580.41;5053844;28;19919;-34
2022/04/20 00:20:13;;;;;;;;;;;;;;;10.40;53.14;101575.03;5054305;28;19916;-34
2022/04/20 00:22:38;;;;;;;;;;;;;;;10.36;52.09;101577.31;5053519;28;19966;-34
2022/04/20 00:25:04;;;;;;;;;;;;;;;10.25;54.61;101572.56;5053527;28;19923;-34
2022/04/20 00:27:34;;;;;;;;;;;;;;;10.19;54.30;101582.31;5053441;28;19913;-34
2022/04/20 00:29:59;;;;;;;;;;;;;;;10.17;52.90;101575.47;5052956;28;19971;-34
2022/04/20 00:32:24;;;;;;;;;;;;;;;10.13;54.04;101576.91;5053157;28;20368;-34
2022/04/20 00:34:50;;;;;;;;;;;;;;;10.10;53.04;101580.84;5053776;28;19913;-34
2022/04/20 00:37:15;;;;;;;;;;;;;;;10.10;54.88;101580.03;5053369;28;19913;-34
2022/04/20 00:39:40;;;;;;;;;;;;;;;10.11;53.24;101581.72;5053698;28;19959;-34
2022/04/20 00:42:05;;;;;;;;;;;;;;;10.12;53.27;101584.19;5053411;28;19956;-34
2022/04/20 00:44:31;;;;;;;;;;;;;;;10.15;52.38;101593.75;5054034;28;19952;-34
2022/04/20 00:46:57;;;;;;;;;;;;;;;10.11;54.31;101593.34;5054339;28;19978;-34
2022/04/20 00:49:22;;;;;;;;;;;;;;;10.07;52.96;101598.34;5053617;28;19920;-34
2022/04/20 00:51:51;;;;;;;;;;;;;;;10.06;53.22;101587.75;5053123;28;19913;-34
2022/04/20 00:54:17;;;;;;;;;;;;;;;10.01;54.69;101590.25;5053191;28;19913;-34
2022/04/20 00:56:42;;;;;;;;;;;;;;;9.98;53.79;101591.47;5053377;28;19913;-34
2022/04/20 00:59:07;;;;;;;;;;;;;;;9.83;54.97;101593.56;5053218;28;19913;-34
2022/04/20 01:01:32;;;;;;;;;;;;;;;9.76;54.50;101592.72;5052873;28;19917;-34
2022/04/20 01:03:57;;;;;;;;;;;;;;;9.72;55.60;101596.91;5053458;28;19923;-34
2022/04/20 01:06:23;;;;;;;;;;;;;;;9.70;55.22;101591.69;5053187;28;19923;-34
2022/04/20 01:08:48;;;;;;;;;;;;;;;9.65;55.60;101593.34;5053354;28;19912;-34
2022/04/20 01:11:14;;;;;;;;;;;;;;;9.65;55.58;101593.34;5053878;28;19958;-34
2022/04/20 01:13:39;;;;;;;;;;;;;;;9.56;55.34;101595.41;5052791;28;20361;-34
2022/04/20 01:16:04;;;;;;;;;;;;;;;9.55;54.66;101594.56;5053798;28;20387;-34
2022/04/20 01:18:29;;;;;;;;;;;;;;;9.57;55.94;101591.69;5053037;28;20012;-34
2022/04/20 01:20:55;;;;;;;;;;;;;;;9.57;55.73;101594.38;5053263;28;19916;-34
2022/04/20 01:23:20;;;;;;;;;;;;;;;9.58;54.06;101584.41;5053391;28;20280;-34
2022/04/20 01:25:45;;;;;;;;;;;;;;;9.57;53.74;101589.00;5054507;28;19966;-34
2022/04/20 01:28:10;;;;;;;;;;;;;;;9.44;55.85;101595.19;5056213;28;20066;-34
2022/04/20 01:30:36;;;;;;;;;;;;;;;9.49;54.75;101591.88;5056422;28;20373;-34
2022/04/20 01:33:02;;;;;;;;;;;;;;;9.40;55.33;101596.63;5056596;28;20007;-34
2022/04/20 01:35:27;;;;;;;;;;;;;;;9.41;54.98;101595.59;5057019;28;20283;-34
2022/04/20 01:37:52;;;;;;;;;;;;;;;9.44;54.96;101595.19;5056786;28;20357;-34
2022/04/20 01:40:18;;;;;;;;;;;;;;;9.36;55.65;101598.06;5056445;28;19958;-34
2022/04/20 01:42:43;;;;;;;;;;;;;;;9.39;54.01;101597.66;5055075;28;19912;-34
2022/04/20 01:45:08;;;;;;;;;;;;;;;9.39;55.35;101602.25;5056785;28;19917;-34
2022/04/20 01:47:34;;;;;;;;;;;;;;;9.40;55.77;101596.63;5054926;28;19966;-34
2022/04/20 01:49:59;;;;;;;;;;;;;;;9.42;55.32;101599.13;5056779;28;19913;-34
2022/04/20 01:52:24;;;;;;;;;;;;;;;9.37;55.29;101604.28;5056249;28;20349;-34
2022/04/20 01:54:50;;;;;;;;;;;;;;;9.28;56.33;101592.88;5056494;28;20307;-34
2022/04/20 01:57:15;;;;;;;;;;;;;;;9.27;55.61;101596.59;5056104;28;19913;-34
2022/04/20 01:59:40;;;;;;;;;;;;;;;9.23;55.61;101598.06;5056345;28;20003;-34
2022/04/20 02:04:49;;;;;;;;;;;;;;;9.13;55.47;101594.94;5056422;28;20016;-33
2022/04/20 02:07:14;;;;;;;;;;;;;;;9.15;54.82;101598.25;5056528;28;19970;-34
2022/04/20 02:09:40;;;;;;;;;;;;;;;9.13;56.34;101603.03;5056293;28;19913;-33
2022/04/20 02:12:05;;;;;;;;;;;;;;;9.08;56.12;101600.06;5056726;28;20268;-34
2022/04/20 02:14:30;;;;;;;;;;;;;;;9.05;54.75;101601.31;5055513;28;19920;-34
2022/04/20 02:16:55;;;;;;;;;;;;;;;9.06;55.13;101592.19;5056531;28;19913;-34
2022/04/20 02:19:21;;;;;;;;;;;;;;;9.03;55.00;101590.75;5055795;28;19913;-34
2022/04/20 02:21:46;;;;;;;;;;;;;;;9.02;55.40;101597.16;5056305;28;19920;-34
2022/04/20 02:24:13;;;;;;;;;;;;;;;9.02;54.45;101590.91;5055394;28;19967;-33
2022/04/20 02:26:39;;;;;;;;;;;;;;;9.06;54.07;101591.34;5056436;28;20007;-33
2022/04/20 02:29:04;;;;;;;;;;;;;;;9.02;55.41;101591.75;5056327;28;20007;-34
2022/04/20 02:31:29;;;;;;;;;;;;;;;9.01;55.11;101592.78;5056098;28;20020;-33
2022/04/20 02:33:54;;;;;;;;;;;;;;;9.02;55.10;101596.31;5055500;28;20363;-33
2022/04/20 02:36:19;;;;;;;;;;;;;;;8.96;55.01;101587.16;5056237;28;19913;-34
2022/04/20 02:38:45;;;;;;;;;;;;;;;8.97;54.30;101588.81;5055756;28;19951;-38
2022/04/20 02:41:10;;;;;;;;;;;;;;;8.94;54.98;101594.66;5055569;28;19974;-34
2022/04/20 02:43:36;;;;;;;;;;;;;;;8.93;54.42;101602.91;5055765;28;20411;-34
2022/04/20 02:46:01;;;;;;;;;;;;;;;8.85;55.69;101600.41;5055764;28;19995;-33
2022/04/20 02:48:26;;;;;;;;;;;;;;;8.88;54.87;101594.59;5055698;28;19920;-34
2022/04/20 02:50:52;;;;;;;;;;;;;;;8.86;55.25;101594.81;5055131;28;19912;-34
2022/04/20 02:53:17;;;;;;;;;;;;;;;8.85;54.57;101603.13;5053789;28;19979;-33
2022/04/20 02:55:42;;;;;;;;;;;;;;;8.85;53.90;101600.41;5054680;28;19913;-33
2022/04/20 02:58:07;;;;;;;;;;;;;;;8.79;55.49;101602.06;5054954;28;19912;-33
2022/04/20 03:00:33;;;;;;;;;;;;;;;8.73;55.11;101605.53;5054732;28;19919;-33
2022/04/20 03:02:58;;;;;;;;;;;;;;;8.66;54.86;101607.38;5054928;28;19917;-33
2022/04/20 03:05:23;;;;;;;;;;;;;;;8.67;53.69;101611.72;5055459;28;19928;-33
2022/04/20 03:07:48;;;;;;;;;;;;;;;8.69;54.92;101612.38;5054553;28;19912;-33
2022/04/20 03:10:14;;;;;;;;;;;;;;;8.69;53.93;101612.38;5055027;28;19917;-33
2022/04/20 03:12:39;;;;;;;;;;;;;;;8.64;55.40;101610.28;5054481;28;19935;-33
2022/04/20 03:15:05;;;;;;;;;;;;;;;8.62;54.59;101611.50;5054157;28;20300;-33
2022/04/20 03:17:30;;;;;;;;;;;;;;;8.61;54.79;101610.66;5053336;28;19923;-33
2022/04/20 03:19:55;;;;;;;;;;;;;;;8.63;54.11;101605.91;5054581;28;19912;-33
2022/04/20 03:22:21;;;;;;;;;;;;;;;8.65;53.55;101611.09;5054717;28;19944;-33
2022/04/20 03:24:46;;;;;;;;;;;;;;;8.63;54.93;101618.53;5054481;28;19913;-33
2022/04/20 03:27:12;;;;;;;;;;;;;;;8.59;55.25;101617.28;5054494;28;19920;-34
2022/04/20 03:29:37;;;;;;;;;;;;;;;8.56;54.35;101623.09;5054323;28;19999;-33
2022/04/20 03:32:07;;;;;;;;;;;;;;;8.55;54.05;101622.25;5054207;28;19959;-34
2022/04/20 03:34:33;;;;;;;;;;;;;;;8.54;53.95;101626.00;5054586;28;20011;-33
2022/04/20 03:36:58;;;;;;;;;;;;;;;8.49;54.97;101625.72;5054808;28;20062;-33
2022/04/20 03:39:23;;;;;;;;;;;;;;;8.41;55.07;101629.44;5054817;28;19916;-34
2022/04/20 03:41:48;;;;;;;;;;;;;;;8.37;54.45;101630.84;5054518;28;19913;-33
2022/04/20 03:44:13;;;;;;;;;;;;;;;8.35;56.09;101629.34;5054180;28;20365;-33
2022/04/20 03:46:39;;;;;;;;;;;;;;;8.26;56.22;101628.66;5054572;28;20368;-33
2022/04/20 03:49:04;;;;;;;;;;;;;;;8.26;55.25;101634.06;5054232;28;20025;-33
2022/04/20 03:51:29;;;;;;;;;;;;;;;8.24;56.21;101631.53;5054655;28;19956;-34
2022/04/20 03:53:54;;;;;;;;;;;;;;;8.27;54.60;101630.31;5054276;28;19920;-33
2022/04/20 03:56:19;;;;;;;;;;;;;;;8.15;55.71;101621.09;5054598;28;19913;-34
2022/04/20 03:58:45;;;;;;;;;;;;;;;8.16;55.65;101631.72;5053959;28;19913;-34
2022/04/20 04:01:10;;;;;;;;;;;;;;;8.18;55.36;101634.19;5054116;28;20349;-35
2022/04/20 04:03:35;;;;;;;;;;;;;;;8.14;55.82;101636.44;5054118;28;19917;-33
2022/04/20 04:06:01;;;;;;;;;;;;;;;8.10;55.60;101628.94;5052445;28;20328;-34
2022/04/20 04:08:26;;;;;;;;;;;;;;;8.07;56.19;101629.34;5053336;28;19919;-34
2022/04/20 04:10:51;;;;;;;;;;;;;;;8.06;56.19;101639.31;5053472;28;19912;-34
2022/04/20 04:13:17;;;;;;;;;;;;;;;7.94;56.38;101638.97;5054091;28;19913;-34
2022/04/20 04:15:46;;;;;;;;;;;;;;;7.90;58.05;101639.56;5053745;28;19912;-34
2022/04/20 04:18:12;;;;;;;;;;;;;;;7.91;55.86;101639.38;5053744;28;20352;-34
2022/04/20 04:20:37;;;;;;;;;;;;;;;7.92;56.18;101638.34;5052543;28;19920;-34
2022/04/20 04:23:02;;;;;;;;;;;;;;;7.95;55.65;101640.66;5053277;28;19959;-34
2022/04/20 04:25:29;;;;;;;;;;;;;;;7.91;56.46;101642.06;5053854;28;19924;-34
2022/04/20 04:27:54;;;;;;;;;;;;;;;7.90;55.88;101640.38;5053438;28;19924;-34
2022/04/20 04:30:19;;;;;;;;;;;;;;;7.88;56.21;101644.31;5053511;28;20312;-34
2022/04/20 04:32:44;;;;;;;;;;;;;;;7.90;56.20;101643.09;5053468;28;20359;-34
2022/04/20 04:35:10;;;;;;;;;;;;;;;7.91;56.61;101646.63;5053227;28;19912;-34
2022/04/20 04:37:35;;;;;;;;;;;;;;;7.82;57.55;101642.41;5053362;28;19919;-34
2022/04/20 04:40:01;;;;;;;;;;;;;;;7.81;57.03;101655.03;5053651;28;20350;-34
2022/04/20 04:42:26;;;;;;;;;;;;;;;7.77;57.57;101655.63;5053250;28;20254;-34
2022/04/20 04:44:52;;;;;;;;;;;;;;;7.77;56.03;101653.75;5054087;28;19912;-34
2022/04/20 04:50:01;;;;;;;;;;;;;;;7.73;57.21;101665.94;5053800;28;19920;-34
2022/04/20 04:52:27;;;;;;;;;;;;;;;7.73;57.51;101660.53;5053210;28;19912;-34
2022/04/20 04:54:53;;;;;;;;;;;;;;;7.73;57.88;101668.63;5053161;28;20328;-34
2022/04/20 04:57:18;;;;;;;;;;;;;;;7.74;58.55;101678.34;5053236;28;20011;-34
2022/04/20 04:59:43;;;;;;;;;;;;;;;7.75;58.49;101669.25;5052955;28;20007;-34
2022/04/20 05:02:09;;;;;;;;;;;;;;;7.75;58.53;101672.78;5057510;28;19999;-34
2022/04/20 05:04:38;;;;;;;;;;;;;;;7.78;58.10;101679.66;5055321;28;20272;-34
2022/04/20 05:07:04;;;;;;;;;;;;;;;7.81;56.96;101678.41;5057830;28;19917;-34
2022/04/20 05:09:29;;;;;;;;;;;;;;;7.85;56.27;101680.53;5057043;28;20348;-34
2022/04/20 05:11:54;;;;;;;;;;;;;;;7.92;56.61;101684.13;5057000;28;19913;-34
2022/04/20 05:14:20;;;;;;;;;;;;;;;7.98;56.31;101683.34;5056985;28;19935;-34
2022/04/20 05:16:45;;;;;;;;;;;;;;;8.06;56.70;101686.97;5056888;28;20004;-34
2022/04/20 05:19:10;;;;;;;;;;;;;;;8.10;57.01;101696.28;5056859;28;19920;-34
2022/04/20 05:21:36;;;;;;;;;;;;;;;8.11;56.11;101684.50;5057119;28;19970;-34
2022/04/20 05:24:01;;;;;;;;;;;;;;;8.05;57.86;101690.66;5056703;28;19912;-34
2022/04/20 05:26:26;;;;;;;;;;;;;;;8.10;57.30;101688.22;5056690;28;20250;-34
2022/04/20 05:28:52;;;;;;;;;;;;;;;8.06;57.68;101693.19;5056661;28;19917;-34
2022/04/20 05:31:17;;;;;;;;;;;;;;;8.05;57.64;101690.66;5056922;28;19920;-34
2022/04/20 05:33:42;;;;;;;;;;;;;;;8.07;57.07;101691.31;5056240;28;19991;-34
2022/04/20 05:36:08;;;;;;;;;;;;;;;8.04;57.75;101691.69;5056643;28;19920;-34
2022/04/20 05:44:00;;;;;;;;;;;;;;;8.20;57.73;101696.81;5056496;28;19932;-34
2022/04/20 05:46:26;;;;;;;;;;;;;;;8.32;57.21;101692.56;5056992;28;19912;-34
2022/04/20 05:48:51;;;;;;;;;;;;;;;8.40;57.25;101694.31;5055411;28;20269;-34
2022/04/20 05:51:16;;;;;;;;;;;;;;;8.45;57.96;101690.00;5055980;28;19944;-34
2022/04/20 05:53:41;;;;;;;;;;;;;;;8.56;57.31;101695.88;5057006;28;19920;-34
2022/04/20 05:56:06;;;;;;;;;;;;;;;8.40;58.10;101697.00;5056223;28;19967;-34
2022/04/20 05:58:32;;;;;;;;;;;;;;;8.44;57.41;101690.16;5056398;28;19912;-34
2022/04/20 06:00:57;;;;;;;;;;;;;;;8.62;56.95;101687.00;5055420;28;19966;-34
2022/04/20 06:03:22;;;;;;;;;;;;;;;8.62;57.19;101692.38;5055960;28;20007;-34
2022/04/20 06:05:47;;;;;;;;;;;;;;;8.72;56.99;101691.00;5055729;28;19917;-34
2022/04/20 06:08:13;;;;;;;;;;;;;;;8.71;57.30;101689.34;5055845;28;19923;-34
2022/04/20 06:10:38;;;;;;;;;;;;;;;8.83;56.68;101694.16;5055893;28;19963;-34
2022/04/20 06:13:03;;;;;;;;;;;;;;;8.88;56.94;101689.00;5055500;28;19916;-34
2022/04/20 06:15:28;;;;;;;;;;;;;;;8.99;56.71;101691.16;5056108;28;19920;-34
2022/04/20 06:17:54;;;;;;;;;;;;;;;9.07;56.58;101690.13;5055924;28;20416;-34
2022/04/20 06:20:21;;;;;;;;;;;;;;;9.10;56.07;101689.75;5056013;28;20019;-34
2022/04/20 06:22:46;;;;;;;;;;;;;;;9.23;56.17;101689.81;5055612;28;20364;-34
2022/04/20 06:25:11;;;;;;;;;;;;;;;9.29;55.89;101684.44;5055368;28;19913;-34
2022/04/20 06:27:37;;;;;;;;;;;;;;;9.37;55.44;101696.94;5055238;28;19913;-34
2022/04/20 06:30:02;;;;;;;;;;;;;;;9.38;54.91;101693.19;5056277;28;19951;-34
2022/04/20 06:32:28;;;;;;;;;;;;;;;9.51;55.10;101687.81;5055432;28;19920;-34
2022/04/20 06:34:54;;;;;;;;;;;;;;;9.53;54.80;101693.03;5055835;28;19913;-34
2022/04/20 06:37:20;;;;;;;;;;;;;;;9.70;55.26;101697.00;5054319;28;19919;-34
2022/04/20 06:39:45;;;;;;;;;;;;;;;9.80;53.99;101693.91;5053714;28;20003;-34
2022/04/20 06:42:11;;;;;;;;;;;;;;;9.93;54.26;101690.41;5055724;28;19919;-34
2022/04/20 06:44:37;;;;;;;;;;;;;;;10.05;54.26;101696.84;5054968;28;19920;-34
2022/04/20 06:47:02;;;;;;;;;;;;;;;10.15;53.64;101701.84;5055703;28;19982;-34
2022/04/20 06:49:27;;;;;;;;;;;;;;;10.16;53.86;101701.66;5054769;28;20289;-34
2022/04/20 07:00:06;;;;;;;;;;;;;;;10.57;53.27;101706.88;5055305;28;19920;-34
2022/04/20 07:02:31;;;;;;;;;;;;;;;10.68;53.07;101699.16;5055549;28;19913;-34
2022/04/20 07:04:56;;;;;;;;;;;;;;;10.70;52.78;101697.91;5055215;28;19913;-34
2022/04/20 07:07:21;;;;;;;;;;;;;;;10.85;52.44;101703.09;5055174;28;20365;-34
2022/04/20 07:09:47;;;;;;;;;;;;;;;10.88;51.85;101697.22;5055541;28;19912;-34
2022/04/20 07:12:12;;;;;;;;;;;;;;;10.95;52.26;101700.75;5054995;28;20007;-34
2022/04/20 07:14:38;;;;;;;;;;;;;;;11.01;50.75;101704.50;5054651;28;19913;-34
2022/04/20 07:17:03;;;;;;;;;;;;;;;11.04;50.44;101696.78;5053338;28;19971;-34
2022/04/20 07:19:28;;;;;;;;;;;;;;;11.01;50.46;101694.50;5054576;28;19913;-34
2022/04/20 07:21:53;;;;;;;;;;;;;;;11.08;50.94;101700.72;5054004;28;20019;-34
2022/04/20 07:24:19;;;;;;;;;;;;;;;11.19;50.57;101701.09;5053701;28;20007;-34
2022/04/20 07:26:44;;;;;;;;;;;;;;;11.26;50.04;101699.19;5054503;28;19954;-34
2022/04/20 07:29:09;;;;;;;;;;;;;;;11.38;50.00;101702.06;5054389;28;20008;-34
2022/04/20 07:31:34;;;;;;;;;;;;;;;11.50;50.40;101695.75;5054155;28;20250;-34
2022/04/20 07:33:59;;;;;;;;;;;;;;;11.53;49.95;101703.44;5054306;28;19920;-34
2022/04/20 07:36:25;;;;;;;;;;;;;;;11.60;50.58;101701.50;5054569;28;20379;-34
2022/04/20 07:38:50;;;;;;;;;;;;;;;11.66;49.27;101704.41;5054264;28;20400;-34
2022/04/20 07:41:15;;;;;;;;;;;;;;;11.77;49.64;101703.72;5054949;28;19913;-34
2022/04/20 07:43:41;;;;;;;;;;;;;;;11.91;49.22;101699.94;5053816;28;19999;-34
2022/04/20 07:46:06;;;;;;;;;;;;;;;11.96;49.67;101710.94;5052880;28;19913;-34
2022/04/20 07:48:31;;;;;;;;;;;;;;;11.89;48.80;101715.56;5054101;28;19913;-34
2022/04/20 07:50:56;;;;;;;;;;;;;;;12.05;49.64;101717.75;5054361;28;19919;-34
2022/04/20 07:53:22;;;;;;;;;;;;;;;12.23;49.39;101713.44;5053995;28;19919;-34
2022/04/20 07:55:47;;;;;;;;;;;;;;;12.31;48.62;101708.59;5053923;28;19936;-34
2022/04/20 07:58:14;;;;;;;;;;;;;;;12.36;47.46;101707.91;5053923;28;19924;-34
2022/04/20 08:00:39;;;;;;;;;;;;;;;12.42;47.90;101703.47;5053610;28;19913;-34
2022/04/20 08:03:10;;;;;;;;;;;;;;;12.50;48.35;101709.47;5053694;28;19999;-34
2022/04/20 08:05:36;;;;;;;;;;;;;;;12.64;48.10;101710.19;5053841;28;19913;-34
2022/04/20 08:08:01;;;;;;;;;;;;;;;12.71;47.01;101710.94;5053467;28;19980;-34
2022/04/20 08:10:26;;;;;;;;;;;;;;;12.75;46.11;101703.19;5053515;28;19967;-34
2022/04/20 08:12:52;;;;;;;;;;;;;;;12.84;45.90;101709.97;5053753;28;19956;-34
2022/04/20 08:15:17;;;;;;;;;;;;;;;12.83;45.78;101709.16;5052705;28;19920;-34
2022/04/20 08:17:42;;;;;;;;;;;;;;;12.91;45.85;101710.72;5053549;28;19913;-34
2022/04/20 08:20:08;;;;;;;;;;;;;;;13.01;46.82;101710.19;5054329;28;19913;-34
2022/04/20 08:22:43;;;;;;;;;;;;;;;13.17;46.75;101715.00;5053502;28;20391;-34
2022/04/20 08:25:09;;;;;;;;;;;;;;;13.29;46.61;101713.25;5053619;28;19960;-34
2022/04/20 08:27:35;;;;;;;;;;;;;;;13.43;46.09;101719.34;5052032;28;19944;-34
2022/04/20 08:30:00;;;;;;;;;;;;;;;13.55;46.38;101712.06;5053543;28;20319;-34
2022/04/20 08:32:26;;;;;;;;;;;;;;;13.62;44.75;101712.00;5053359;28;20015;-35
2022/04/20 08:34:51;;;;;;;;;;;;;;;13.63;44.25;101716.34;5053361;28;19920;-34
2022/04/20 08:37:17;;;;;;;;;;;;;;;13.52;43.17;101715.25;5053381;28;19912;-35
2022/04/20 08:39:42;;;;;;;;;;;;;;;13.61;44.11;101719.28;5053418;28;19913;-35
2022/04/20 08:42:09;;;;;;;;;;;;;;;13.74;45.05;101720.19;5053321;28;19913;-35
2022/04/20 08:44:38;;;;;;;;;;;;;;;13.91;45.05;101716.59;5052780;28;19912;-35
2022/04/20 08:47:07;;;;;;;;;;;;;;;14.02;42.69;101716.84;5053890;28;19987;-34
2022/04/20 08:49:32;;;;;;;;;;;;;;;14.05;44.45;101722.63;5052803;28;19913;-35
2022/04/20 08:54:41;;;;;;;;;;;;;;;14.16;42.68;101718.28;5053337;28;19959;-34
2022/04/20 08:57:16;;;;;;;;;;;;;;;14.30;43.72;101705.28;5053172;28;19959;-34
2022/04/20 08:59:45;;;;;;;;;;;;;;;14.38;42.13;101710.38;5053020;28;19913;-35
2022/04/20 09:02:13;;;;;;;;;;;;;;;14.50;42.82;101705.84;5053307;28;19920;-34
2022/04/20 09:04:39;;;;;;;;;;;;;;;14.48;38.60;101705.22;5053374;28;19917;-35
2022/04/20 09:07:06;;;;;;;;;;;;;;;14.56;40.86;101707.59;5053064;28;20257;-33
2022/04/20 09:09:33;;;;;;;;;;;;;;;14.54;39.19;101707.03;5053031;28;19913;-32
2022/04/20 09:11:59;;;;;;;;;;;;;;;14.72;41.49;101700.59;5053097;28;19948;-34
2022/04/20 09:14:24;;;;;;;;;;;;;;;14.83;41.58;101693.50;5053260;28;19912;-33
2022/04/20 09:16:54;;;;;;;;;;;;;;;14.69;39.20;101701.09;5053317;28;19919;-32
2022/04/20 09:19:26;;;;;;;;;;;;;;;14.84;41.89;101709.59;5052694;28;19913;-34
2022/04/20 09:21:52;;;;;;;;;;;;;;;14.90;39.69;101697.75;5052827;28;19948;-34
2022/04/20 09:24:17;;;;;;;;;;;;;;;14.89;39.79;101696.09;5051362;28;19963;-34
2022/04/20 09:26:49;;;;;;;;;;;;;;;14.86;39.04;101706.63;5053014;28;19959;-33
2022/04/20 09:29:15;;;;;;;;;;;;;;;15.00;40.33;101701.78;5052099;28;19919;-34
2022/04/20 09:31:44;;;;;;;;;;;;;;;15.06;38.78;101688.00;5053496;28;19912;-34
2022/04/20 09:34:09;;;;;;;;;;;;;;;15.05;40.90;101686.34;5052829;28;19978;-34
2022/04/20 09:36:41;;;;;;;;;;;;;;;15.15;40.57;101683.03;5053343;28;19913;-33
2022/04/20 09:39:06;;;;;;;;;;;;;;;15.31;40.05;101686.88;5052703;28;19912;-34
2022/04/20 09:41:32;;;;;;;;;;;;;;;15.39;39.00;101683.78;5053344;28;20095;-33
2022/04/20 09:44:07;;;;;;;;;;;;;;;15.39;39.22;101678.31;5066155;28;19927;-34
2022/04/20 09:49:16;;;;;;;;;;;;;;;15.32;37.99;101672.16;5046383;28;19932;-34
2022/04/20 09:51:42;;;;;;;;;;;;;;;15.44;39.04;101679.25;5056475;28;19913;-34
2022/04/20 09:54:27;;;;;;;;;;;;;;;15.58;37.50;101671.59;5056175;28;19916;-34
2022/04/20 09:57:12;;;;;;;;;;;;;;;15.67;36.97;101672.91;5056562;28;19913;-34
2022/04/20 09:59:53;;;;;;;;;;;;;;;15.68;37.46;101671.81;5055997;28;20377;-33
2022/04/20 10:02:19;;;;;;;;;;;;;;;15.78;38.59;101668.44;5056493;28;19913;-34
2022/04/20 10:04:45;;;;;;;;;;;;;;;15.89;36.17;101666.72;5056531;28;20045;-34
2022/04/20 10:07:10;;;;;;;;;;;;;;;15.98;36.73;101667.97;5056481;28;19913;-34
2022/04/20 10:09:35;;;;;;;;;;;;;;;16.02;36.14;101650.06;5055758;28;19919;-34
2022/04/20 10:12:01;;;;;;;;;;;;;;;16.07;38.01;101662.94;5056347;28;19913;-34
2022/04/20 10:17:12;;;;;;;;;;;;;;;16.32;38.38;101655.16;5056129;28;19920;-34
2022/04/20 10:19:39;;;;;;;;;;;;;;;16.47;36.29;101651.84;5055732;28;19913;-33
2022/04/20 10:22:05;;;;;;;;;;;;;;;16.51;36.53;101642.06;5055623;28;19919;-34
2022/04/20 10:24:33;;;;;;;;;;;;;;;16.59;37.82;101647.09;5055836;28;20010;-34
2022/04/20 10:27:34;;;;;;;;;;;;;;;16.68;37.44;101631.91;5055988;28;19919;-34
2022/04/20 10:30:01;;;;;;;;;;;;;;;16.77;35.79;101636.97;5033347;28;19920;-34
2022/04/20 10:32:28;;;;;;;;;;;;;;;16.63;35.51;101639.22;5033826;28;20367;-34
2022/04/20 10:34:54;;;;;;;;;;;;;;;16.75;35.69;101636.41;5033343;28;19923;-34
2022/04/20 10:37:25;;;;;;;;;;;;;;;16.70;36.13;101624.31;5033248;28;20394;-34
2022/04/20 10:39:52;;;;;;;;;;;;;;;16.65;36.16;101637.06;5033394;28;19913;-34
2022/04/20 10:42:17;;;;;;;;;;;;;;;16.76;37.31;101638.06;5033280;28;19959;-34
2022/04/20 10:44:54;;;;;;;;;;;;;;;16.94;36.96;101635.03;5033308;28;20377;-34
2022/04/20 10:47:30;;;;;;;;;;;;;;;17.07;36.57;101634.63;5033193;28;19963;-34
2022/04/20 10:50:11;;;;;;;;;;;;;;;17.10;35.72;101627.84;5033436;28;19913;-34
2022/04/20 10:52:36;;;;;;;;;;;;;;;16.95;35.20;101634.78;5033116;28;19920;-34
2022/04/20 10:55:04;;;;;;;;;;;;;;;16.95;34.44;101625.75;5032833;28;20289;-34
2022/04/20 10:57:34;;;;;;;;;;;;;;;16.84;35.16;101630.28;5032294;28;19943;-34
2022/04/20 11:00:14;;;;;;;;;;;;;;;16.69;36.38;101616.38;5032363;28;19933;-34
2022/04/20 11:02:49;;;;;;;;;;;;;;;16.89;36.97;101610.38;5033130;28;19935;-34
2022/04/20 11:05:15;;;;;;;;;;;;;;;17.05;36.33;101609.47;5054650;28;19920;-34
2022/04/20 11:08:00;;;;;;;;;;;;;;;17.14;36.06;101607.94;5055305;28;19916;-34
2022/04/20 11:10:25;;;;;;;;;;;;;;;16.97;36.56;101618.13;5054710;28;19962;-34
2022/04/20 11:21:03;;;;;;;;;;;;;;;17.56;35.81;101596.31;5054901;28;20379;-34
2022/04/20 11:23:47;;;;;;;;;;;;;;;17.63;35.29;101587.94;5054319;28;19913;-35
2022/04/20 11:26:14;;;;;;;;;;;;;;;17.59;35.10;101592.25;5054546;28;20382;-35
2022/04/20 11:28:41;;;;;;;;;;;;;;;17.64;36.91;101589.56;5054415;28;20007;-35
2022/04/20 11:31:06;;;;;;;;;;;;;;;17.79;36.16;101583.44;5054068;28;19916;-35
2022/04/20 11:33:32;;;;;;;;;;;;;;;17.78;35.21;101590.81;5054109;28;19986;-35
2022/04/20 11:35:58;;;;;;;;;;;;;;;17.78;35.96;101581.78;5055017;28;19920;-35
2022/04/20 11:38:36;;;;;;;;;;;;;;;17.84;36.16;101591.69;5053228;28;20361;-35
2022/04/20 11:41:01;;;;;;;;;;;;;;;17.61;34.84;101579.97;5053943;28;19913;-35
2022/04/20 11:43:26;;;;;;;;;;;;;;;17.49;36.67;101587.53;5053868;28;19943;-35
2022/04/20 11:45:53;;;;;;;;;;;;;;;17.45;35.60;101569.97;5054134;28;19919;-34
2022/04/20 11:48:20;;;;;;;;;;;;;;;17.59;35.93;101567.66;5053725;28;20373;-35
2022/04/20 11:50:53;;;;;;;;;;;;;;;17.77;35.17;101567.28;5054355;28;19945;-35
2022/04/20 11:53:19;;;;;;;;;;;;;;;17.91;35.02;101564.91;5054143;28;19912;-35
2022/04/20 11:55:45;;;;;;;;;;;;;;;17.90;35.00;101563.28;5053851;28;19991;-35
2022/04/20 11:58:12;;;;;;;;;;;;;;;18.01;34.88;101565.00;5054464;28;19913;-34
2022/04/20 12:00:37;;;;;;;;;;;;;;;18.05;35.04;101557.06;5053576;28;19912;-35
2022/04/20 12:03:02;;;;;;;;;;;;;;;18.19;36.94;101559.09;5054352;28;20011;-35
2022/04/20 12:05:27;;;;;;;;;;;;;;;18.30;35.49;101549.03;5052863;28;19921;-35
2022/04/20 12:07:53;;;;;;;;;;;;;;;18.52;35.06;101538.72;5053641;28;20300;-35
2022/04/20 12:10:18;;;;;;;;;;;;;;;18.51;33.81;101545.31;5053900;28;19916;-35
2022/04/20 12:12:43;;;;;;;;;;;;;;;18.37;34.40;101537.84;5053706;28;19916;-35
2022/04/20 12:15:09;;;;;;;;;;;;;;;18.33;34.24;101533.97;5053680;28;20074;-35
2022/04/20 12:17:35;;;;;;;;;;;;;;;18.31;34.29;101542.47;5053598;28;20023;-35
2022/04/20 12:20:00;;;;;;;;;;;;;;;18.48;35.82;101534.06;5053326;28;19936;-35
2022/04/20 12:22:26;;;;;;;;;;;;;;;18.66;36.65;101527.28;5053608;28;19920;-35
2022/04/20 12:25:05;;;;;;;;;;;;;;;18.61;34.13;101530.84;5053451;28;19913;-35
2022/04/20 12:27:30;;;;;;;;;;;;;;;18.52;33.42;101532.44;5054101;28;19913;-35
2022/04/20 12:29:57;;;;;;;;;;;;;;;18.71;35.11;101527.34;5053556;28;19919;-35
2022/04/20 12:32:24;;;;;;;;;;;;;;;18.91;34.57;101521.09;5054301;28;19916;-35
2022/04/20 12:34:54;;;;;;;;;;;;;;;18.81;33.74;101516.41;5053171;28;19913;-35
2022/04/20 12:37:28;;;;;;;;;;;;;;;18.59;33.50;101518.47;5053366;28;19913;-35
2022/04/20 12:39:54;;;;;;;;;;;;;;;18.60;33.15;101520.97;5053697;28;19924;-35
2022/04/20 12:42:19;;;;;;;;;;;;;;;18.09;33.29;101509.75;5054095;28;19913;-35
2022/04/20 12:44:52;;;;;;;;;;;;;;;18.41;34.78;101506.09;5053107;28;20384;-35
2022/04/20 12:47:17;;;;;;;;;;;;;;;18.49;35.41;101505.56;5054123;28;19967;-35
2022/04/20 12:49:43;;;;;;;;;;;;;;;18.60;34.63;101507.28;5053332;28;20369;-34
2022/04/20 12:52:13;;;;;;;;;;;;;;;18.64;34.34;101511.13;5053895;28;19912;-35
2022/04/20 12:54:39;;;;;;;;;;;;;;;18.69;33.70;101494.75;5053222;28;19913;-35
2022/04/20 13:03:02;;;;;;;;;;;;;;;18.96;34.41;101501.91;5053542;28;20340;-35
2022/04/20 13:05:27;;;;;;;;;;;;;;;19.11;33.82;101507.41;5051555;28;19916;-35
2022/04/20 13:07:52;;;;;;;;;;;;;;;19.18;34.24;101488.81;5052900;28;20011;-35
2022/04/20 13:10:18;;;;;;;;;;;;;;;19.23;33.48;101490.72;5053214;28;19913;-35
2022/04/20 13:12:47;;;;;;;;;;;;;;;18.88;33.76;101488.75;5053636;28;19955;-35
2022/04/20 13:15:12;;;;;;;;;;;;;;;18.89;33.83;101493.16;5053881;28;19917;-35
2022/04/20 13:17:37;;;;;;;;;;;;;;;18.83;33.47;101483.25;5051714;28;19962;-35